Time,TemperatureF,DewpointF,PressureIn,WindDirection,WindDirectionDegrees,WindSpeedMPH,WindSpeedGustMPH,Humidity,HourlyPrecipIn,Conditions,Clouds,dailyrainin,SoftwareType,DateUTC
2013-01-22 00:00:00,30.2,20.9,30.24,ENE,67,3.1,-999.0,68,-99.99,,,0.00,Acu-Link.com,2013-01-22 06:00:00,
2013-01-22 00:15:00,30.6,20.9,30.24,ESE,112,4.7,-999.0,67,-99.99,,,0.00,Acu-Link.com,2013-01-22 06:15:00,
2013-01-22 00:30:00,30.2,20.9,30.22,ESE,112,4.7,-999.0,68,-99.99,,,0.00,Acu-Link.com,2013-01-22 06:30:00,
2013-01-22 00:45:00,29.5,20.9,30.22,ESE,112,3.8,-999.0,70,-99.99,,,0.00,Acu-Link.com,2013-01-22 06:45:00,
2013-01-22 01:00:00,29.1,20.9,30.22,East,90,2.7,-999.0,71,-99.99,,,0.00,Acu-Link.com,2013-01-22 07:00:00,
2013-01-22 01:16:00,28.9,21.1,30.23,ESE,112,4.3,-999.0,72,-99.99,,,0.00,Acu-Link.com,2013-01-22 07:16:00,
2013-01-22 01:31:00,29.3,21.1,30.22,ESE,112,4.3,-999.0,71,-99.99,,,0.00,Acu-Link.com,2013-01-22 07:31:00,
2013-01-22 01:46:00,28.8,20.9,30.23,ESE,112,3.8,-999.0,72,-99.99,,,0.00,Acu-Link.com,2013-01-22 07:46:00,
2013-01-22 02:01:00,28.4,20.5,30.22,ESE,112,0.0,-999.0,72,-99.99,,,0.00,Acu-Link.com,2013-01-22 08:01:00,
2013-01-22 02:16:00,27.5,20.6,30.23,NNW,337,0.0,-999.0,75,-99.99,,,0.00,Acu-Link.com,2013-01-22 08:16:00,
2013-01-22 02:32:00,28.8,21.2,30.22,South,180,2.2,-999.0,73,-99.99,,,0.00,Acu-Link.com,2013-01-22 08:32:00,
2013-01-22 02:47:00,28.4,21.5,30.22,South,180,1.6,-999.0,75,-99.99,,,0.00,Acu-Link.com,2013-01-22 08:47:00,
2013-01-22 03:15:00,27.7,21.1,30.23,SSE,157,0.0,-999.0,76,-99.99,,,0.00,Acu-Link.com,2013-01-22 09:15:00,
2013-01-22 03:30:00,27.3,21.7,30.22,ESE,112,1.6,-999.0,79,-99.99,,,0.00,Acu-Link.com,2013-01-22 09:30:00,
2013-01-22 03:45:00,27.7,21.1,30.22,ESE,112,1.6,-999.0,76,-99.99,,,0.00,Acu-Link.com,2013-01-22 09:45:00,
2013-01-22 04:00:00,27.5,21.3,30.22,ESE,112,2.2,-999.0,77,-99.99,,,0.00,Acu-Link.com,2013-01-22 10:00:00,
2013-01-22 04:15:00,27.7,21.4,30.22,SSE,157,0.0,-999.0,77,-99.99,,,0.00,Acu-Link.com,2013-01-22 10:15:00,
2013-01-22 04:31:00,26.4,20.5,30.23,WNW,292,0.0,-999.0,78,-99.99,,,0.00,Acu-Link.com,2013-01-22 10:31:00,
2013-01-22 04:46:00,25.2,19.9,30.23,WNW,292,0.0,-999.0,80,-99.99,,,0.00,Acu-Link.com,2013-01-22 10:46:00,
2013-01-22 05:01:00,25.5,20.8,30.22,SSW,202,2.2,-999.0,82,-99.99,,,0.00,Acu-Link.com,2013-01-22 11:01:00,
2013-01-22 05:16:00,28.6,21.4,30.21,South,180,0.0,-999.0,74,-99.99,,,0.00,Acu-Link.com,2013-01-22 11:16:00,
2013-01-22 05:47:00,25.5,20.8,30.22,ENE,67,0.0,-999.0,82,-99.99,,,0.00,Acu-Link.com,2013-01-22 11:47:00,
2013-01-22 06:02:00,25.5,20.8,30.22,ESE,112,3.1,-999.0,82,-99.99,,,0.00,Acu-Link.com,2013-01-22 12:02:00,
2013-01-22 06:17:00,26.1,20.8,30.23,SE,135,3.1,-999.0,80,-99.99,,,0.00,Acu-Link.com,2013-01-22 12:17:00,
2013-01-22 06:32:00,26.2,20.9,30.22,SE,135,3.1,-999.0,80,-99.99,,,0.00,Acu-Link.com,2013-01-22 12:32:00,
2013-01-22 06:47:00,26.1,21.6,30.22,SSE,157,3.1,-999.0,83,-99.99,,,0.00,Acu-Link.com,2013-01-22 12:47:00,
2013-01-22 07:03:00,27.7,21.7,30.22,SSW,202,4.3,-999.0,78,-99.99,,,0.00,Acu-Link.com,2013-01-22 13:03:00,
2013-01-22 07:18:00,27.9,21.0,30.22,SSW,202,4.3,-999.0,75,-99.99,,,0.00,Acu-Link.com,2013-01-22 13:18:00,
2013-01-22 07:33:00,28.2,21.0,30.22,SSW,202,4.3,-999.0,74,-99.99,,,0.00,Acu-Link.com,2013-01-22 13:33:00,
2013-01-22 07:48:00,28.0,21.2,30.22,South,180,3.1,-999.0,75,-99.99,,,0.00,Acu-Link.com,2013-01-22 13:48:00,
2013-01-22 08:03:00,29.1,22.2,30.23,ESE,112,2.7,-999.0,75,-99.99,,,0.00,Acu-Link.com,2013-01-22 14:03:00,
2013-01-22 08:19:00,30.2,22.3,30.22,South,180,5.1,-999.0,72,-99.99,,,0.00,Acu-Link.com,2013-01-22 14:19:00,
2013-01-22 08:34:00,31.5,22.5,30.22,South,180,4.7,-999.0,69,-99.99,,,0.00,Acu-Link.com,2013-01-22 14:34:00,
2013-01-22 08:49:00,32.4,23.3,30.22,SE,135,5.1,-999.0,69,-99.99,,,0.00,Acu-Link.com,2013-01-22 14:49:00,
2013-01-22 09:04:00,33.6,23.1,30.22,ESE,112,3.1,-999.0,65,-99.99,,,0.00,Acu-Link.com,2013-01-22 15:04:00,
2013-01-22 09:20:00,34.7,24.2,30.23,SE,135,5.1,-999.0,65,-99.99,,,0.00,Acu-Link.com,2013-01-22 15:20:00,
2013-01-22 09:35:00,36.0,25.0,30.22,South,180,6.7,-999.0,64,-99.99,,,0.00,Acu-Link.com,2013-01-22 15:35:00,
2013-01-22 09:50:00,37.9,25.3,30.22,SSE,157,7.8,-999.0,60,-99.99,,,0.00,Acu-Link.com,2013-01-22 15:50:00,
2013-01-22 10:05:00,40.5,26.4,30.22,SSE,157,3.8,-999.0,57,-99.99,,,0.00,Acu-Link.com,2013-01-22 16:05:00,
2013-01-22 10:20:00,41.4,26.4,30.22,SSW,202,7.4,-999.0,55,-99.99,,,0.00,Acu-Link.com,2013-01-22 16:20:00,
2013-01-22 10:36:00,43.5,27.5,30.22,SW,225,6.7,-999.0,53,-99.99,,,0.00,Acu-Link.com,2013-01-22 16:36:00,
2013-01-22 10:51:00,44.2,28.7,30.22,SW,225,5.1,-999.0,54,-99.99,,,0.00,Acu-Link.com,2013-01-22 16:51:00,
2013-01-22 11:06:00,46.6,28.9,30.21,SSW,202,6.3,-999.0,50,-99.99,,,0.00,Acu-Link.com,2013-01-22 17:06:00,
2013-01-22 11:21:00,48.0,29.8,30.21,SSW,202,8.3,-999.0,49,-99.99,,,0.00,Acu-Link.com,2013-01-22 17:21:00,
2013-01-22 11:36:00,50.2,30.7,30.21,WSW,247,3.8,-999.0,47,-99.99,,,0.00,Acu-Link.com,2013-01-22 17:36:00,
2013-01-22 11:52:00,51.6,31.5,30.21,WSW,247,4.7,-999.0,46,-99.99,,,0.00,Acu-Link.com,2013-01-22 17:52:00,
2013-01-22 12:07:00,53.2,32.5,30.20,SSW,202,5.8,-999.0,45,-99.99,,,0.00,Acu-Link.com,2013-01-22 18:07:00,
2013-01-22 12:22:00,54.5,32.5,30.19,SSW,202,9.8,-999.0,43,-99.99,,,0.00,Acu-Link.com,2013-01-22 18:22:00,
2013-01-22 12:37:00,55.6,33.4,30.18,SSW,202,7.4,-999.0,43,-99.99,,,0.00,Acu-Link.com,2013-01-22 18:37:00,
2013-01-22 12:52:00,57.2,33.7,30.16,SW,225,7.4,-999.0,41,-99.99,,,0.00,Acu-Link.com,2013-01-22 18:52:00,
2013-01-22 13:08:00,59.2,36.1,30.14,WSW,247,7.4,-999.0,42,-99.99,,,0.00,Acu-Link.com,2013-01-22 19:08:00,
2013-01-22 13:23:00,58.8,35.8,30.13,South,180,9.8,-999.0,42,-99.99,,,0.00,Acu-Link.com,2013-01-22 19:23:00,
2013-01-22 13:38:00,60.4,37.2,30.12,SSW,202,8.3,-999.0,42,-99.99,,,0.00,Acu-Link.com,2013-01-22 19:38:00,
2013-01-22 13:53:00,61.0,37.7,30.11,SW,225,4.3,-999.0,42,-99.99,,,0.00,Acu-Link.com,2013-01-22 19:53:00,
2013-01-22 14:09:00,61.7,38.4,30.10,West,270,4.7,-999.0,42,-99.99,,,0.00,Acu-Link.com,2013-01-22 20:09:00,
2013-01-22 14:24:00,62.6,39.2,30.10,WSW,247,7.4,-999.0,42,-99.99,,,0.00,Acu-Link.com,2013-01-22 20:24:00,
2013-01-22 14:39:00,63.0,39.5,30.10,SSW,202,11.9,-999.0,42,-99.99,,,0.00,Acu-Link.com,2013-01-22 20:39:00,
2013-01-22 14:54:00,63.0,38.9,30.10,South,180,7.8,-999.0,41,-99.99,,,0.00,Acu-Link.com,2013-01-22 20:54:00,
2013-01-22 15:09:00,63.5,40.0,30.10,SW,225,11.0,-999.0,42,-99.99,,,0.00,Acu-Link.com,2013-01-22 21:09:00,
2013-01-22 15:25:00,63.7,40.2,30.09,SSE,157,8.3,-999.0,42,-99.99,,,0.00,Acu-Link.com,2013-01-22 21:25:00,
2013-01-22 15:40:00,63.3,39.8,30.09,SSW,202,7.4,-999.0,42,-99.99,,,0.00,Acu-Link.com,2013-01-22 21:40:00,
2013-01-22 15:55:00,63.5,40.0,30.09,SSW,202,8.9,-999.0,42,-99.99,,,0.00,Acu-Link.com,2013-01-22 21:55:00,
2013-01-22 16:10:00,63.3,40.4,30.08,South,180,5.1,-999.0,43,-99.99,,,0.00,Acu-Link.com,2013-01-22 22:10:00,
2013-01-22 16:25:00,62.8,41.1,30.08,South,180,10.3,-999.0,45,-99.99,,,0.00,Acu-Link.com,2013-01-22 22:25:00,
2013-01-22 16:41:00,62.8,41.1,30.09,SSE,157,3.8,-999.0,45,-99.99,,,0.00,Acu-Link.com,2013-01-22 22:41:00,
2013-01-22 16:56:00,62.6,41.5,30.09,South,180,6.7,-999.0,46,-99.99,,,0.00,Acu-Link.com,2013-01-22 22:56:00,
2013-01-22 17:11:00,62.6,42.1,30.09,SSE,157,7.4,-999.0,47,-99.99,,,0.00,Acu-Link.com,2013-01-22 23:11:00,
2013-01-22 17:26:00,61.3,43.1,30.08,South,180,5.1,-999.0,51,-99.99,,,0.00,Acu-Link.com,2013-01-22 23:26:00,
2013-01-22 17:57:00,58.5,43.3,30.09,ESE,112,4.7,-999.0,57,-99.99,,,0.00,Acu-Link.com,2013-01-22 23:57:00,
2013-01-22 18:12:00,57.0,42.4,30.10,SSE,157,4.7,-999.0,58,-99.99,,,0.00,Acu-Link.com,2013-01-23 00:12:00,
2013-01-22 18:27:00,56.1,42.4,30.10,SE,135,5.8,-999.0,60,-99.99,,,0.00,Acu-Link.com,2013-01-23 00:27:00,
2013-01-22 18:42:00,55.4,42.2,30.10,South,180,5.8,-999.0,61,-99.99,,,0.00,Acu-Link.com,2013-01-23 00:42:00,
2013-01-22 18:58:00,55.0,42.3,30.10,South,180,6.7,-999.0,62,-99.99,,,0.00,Acu-Link.com,2013-01-23 00:58:00,
2013-01-22 19:13:00,54.5,41.8,30.10,SSE,157,4.3,-999.0,62,-99.99,,,0.00,Acu-Link.com,2013-01-23 01:13:00,
2013-01-22 19:28:00,53.6,42.1,30.10,ESE,112,5.1,-999.0,65,-99.99,,,0.00,Acu-Link.com,2013-01-23 01:28:00,
2013-01-22 19:43:00,52.0,41.4,30.10,SE,135,4.7,-999.0,67,-99.99,,,0.00,Acu-Link.com,2013-01-23 01:43:00,
2013-01-22 19:58:00,50.9,41.5,30.10,ESE,112,5.1,-999.0,70,-99.99,,,0.00,Acu-Link.com,2013-01-23 01:58:00,
2013-01-22 20:14:00,49.3,40.6,30.11,ESE,112,4.3,-999.0,72,-99.99,,,0.00,Acu-Link.com,2013-01-23 02:14:00,
2013-01-22 20:29:00,48.6,40.7,30.11,ESE,112,4.3,-999.0,74,-99.99,,,0.00,Acu-Link.com,2013-01-23 02:29:00,
2013-01-22 20:44:00,48.4,41.2,30.11,ESE,112,6.3,-999.0,76,-99.99,,,0.00,Acu-Link.com,2013-01-23 02:44:00,
2013-01-22 20:59:00,46.9,40.4,30.11,ESE,112,4.3,-999.0,78,-99.99,,,0.00,Acu-Link.com,2013-01-23 02:59:00,
2013-01-22 21:14:00,45.7,40.5,30.12,East,90,3.8,-999.0,82,-99.99,,,0.00,Acu-Link.com,2013-01-23 03:14:00,
2013-01-22 21:30:00,46.0,41.2,30.12,ESE,112,5.1,-999.0,83,-99.99,,,0.00,Acu-Link.com,2013-01-23 03:30:00,
2013-01-22 21:45:00,46.0,41.2,30.13,ESE,112,5.1,-999.0,83,-99.99,,,0.00,Acu-Link.com,2013-01-23 03:45:00,
2013-01-22 22:00:00,46.2,41.0,30.12,SE,135,6.3,-999.0,82,-99.99,,,0.00,Acu-Link.com,2013-01-23 04:00:00,
2013-01-22 22:15:00,45.7,40.5,30.13,ESE,112,4.7,-999.0,82,-99.99,,,0.00,Acu-Link.com,2013-01-23 04:15:00,
2013-01-22 22:30:00,45.3,40.5,30.13,East,90,3.8,-999.0,83,-99.99,,,0.00,Acu-Link.com,2013-01-23 04:30:00,
2013-01-22 22:46:00,44.4,40.2,30.14,ESE,112,4.3,-999.0,85,-99.99,,,0.00,Acu-Link.com,2013-01-23 04:46:00,
2013-01-22 23:01:00,44.4,40.2,30.13,ESE,112,3.1,-999.0,85,-99.99,,,0.00,Acu-Link.com,2013-01-23 05:01:00,
2013-01-22 23:31:00,44.1,40.1,30.14,East,90,4.7,-999.0,86,-99.99,,,0.00,Acu-Link.com,2013-01-23 05:31:00,
2013-01-22 23:47:00,44.6,40.7,30.15,ESE,112,5.8,-999.0,86,-99.99,,,0.00,Acu-Link.com,2013-01-23 05:47:00,